Maersk Nimes — VRFO7 — position and weather

sailwx.info

Track history (hours):
 
Tides and Currents Weather Stations Pressure Air Temp Water Temp Dewpoint Dewpoint Depression Visibility Wind Speed Wind Dir Waves Ship Positions

Maersk Nimes

Last reported at 2017-Nov-21 05:00 UTC. Time now 2017-Nov-21 06:15 UTC.
Position N 30°24' W 038°12'.

Length 210 m; draft 10.6 m.

Type: Cargo ship. MMSI: 477559200.

Wind from 030 at 15 knots

Barometer 1017.0 mb
Air temperature 22.0 ° C
Visibility: greater than 10.8 NM
Dewpoint 18.9 ° C
Water temperature 23.0 ° C

Date/timePositionNaut miles runAvg speedWind from/ knotsBaromVisibWave heightAir tempDewpointWater temp
2017-Nov-21 05:00N 30°24' W 038°12'4815.9 030 / 151017.010.8 22.018.923.0
2017-Nov-21 02:00N 30°48' W 037°24'11616.5 010 / 161017.310.8 20.016.724.0
2017-Nov-20 19:00N 31°30' W 035°18'4522.3 360 / 211013.310.8 21.014.217.0
2017-Nov-20 17:00N 31°48' W 034°30'4514.8 010 / 161012.010.8 25.022.024.0
2017-Nov-20 14:00N 32°06' W 033°42'15617.4 360 / 171011.910.8 23.019.925.0
2017-Nov-20 05:00N 33°00' W 030°48'13915.4 170 / 211011.010.8 24.021.023.0
2017-Nov-19 20:00N 33°48' W 028°12'2120.8 180 / 131014.010.8 21.017.818.0
2017-Nov-19 19:00N 33°54' W 027°48'9014.9 180 / 151014.010.8 22.018.918.0
2017-Nov-19 13:00N 34°24' W 026°06'3615.9 130 / 151017.310.8 26.023.123.0
2017-Nov-19 10:44N 34°35' W 025°25'816.7
2017-Nov-19 10:16N 34°37' W 025°16'8516.1
2017-Nov-19 05:00N 35°00' W 023°36'24516.3 130 / 91007.710.8 20.014.916.0
2017-Nov-18 14:00N 37°24' W 019°30'3617.8 140 / 161020.010.8 20.014.920.0
2017-Nov-18 12:00N 37°54' W 019°06'13717.1 140 / 151021.910.8 26.013.520.0
2017-Nov-18 04:00N 39°42' W 017°18'16117.1 090 / 151021.010.8 18.014.617.0
2017-Nov-17 18:34N 41°51' W 015°10'117.2
2017-Nov-17 18:31N 41°51' W 015°09'2214.3
2017-Nov-17 17:00N 42°06' W 014°48'7518.6 090 / 131022.810.8 19.013.816.0
2017-Nov-17 13:00N 43°06' W 013°48'1817.8 050 / 151024.010.8 18.012.716.0
2017-Nov-17 12:00N 43°18' W 013°30'14317.8 050 / 151024.810.8 17.0 9.415.0
2017-Nov-17 04:00N 45°12' W 011°30'26617.2 330 / 121026.010.8 15.0 9.214.0
2017-Nov-16 12:29N 48°43' W 007°33'1416.3
2017-Nov-16 11:37N 48°55' W 007°20'3116.5
2017-Nov-16 09:44N 49°15' W 006°44'2217.1
2017-Nov-16 08:26N 49°24' W 006°12'717.3
2017-Nov-16 08:00N 49°25' W 006°01'1217.2
2017-Nov-16 07:19N 49°28' W 005°43'517.0
2017-Nov-16 07:00N 49°29' W 005°36'817.0
2017-Nov-16 06:30N 49°31' W 005°23'916.8
2017-Nov-16 05:57N 49°33' W 005°09'816.7
2017-Nov-16 05:30N 49°35' W 004°58'816.2
2017-Nov-16 05:00N 49°37' W 004°46'816.0
2017-Nov-16 04:30N 49°40' W 004°34'815.9
2017-Nov-16 04:01N 49°42' W 004°22'915.5
2017-Nov-16 03:25N 49°45' W 004°09'715.4
2017-Nov-16 02:57N 49°47' W 003°58'715.7
2017-Nov-16 02:29N 49°49' W 003°48'816.1
2017-Nov-16 02:01N 49°52' W 003°36'816.7
2017-Nov-16 01:31N 49°54' W 003°24'917.3
2017-Nov-16 01:00N 49°57' W 003°11'918.0
2017-Nov-16 00:30N 49°60' W 002°58'918.5
2017-Nov-16 00:00N 50°02' W 002°44'1019.1
2017-Nov-15 23:31N 50°05' W 002°30'1219.8
2017-Nov-15 22:53N 50°07' W 002°11'719.5
2017-Nov-15 22:30N 50°09' W 001°60'919.0
2017-Nov-15 22:00N 50°12' W 001°45'918.3
2017-Nov-15 21:30N 50°14' W 001°32'918.0
2017-Nov-15 21:01N 50°17' W 001°18'917.2
2017-Nov-15 20:30N 50°19' W 001°05'1116.1
2017-Nov-15 19:49N 50°23' W 000°49'2025.1
2017-Nov-15 19:01N 50°39' W 000°31'1233.1
2017-Nov-15 18:40N 50°28' W 000°23'315.6
2017-Nov-15 18:30N 50°29' W 000°19'816.0
2017-Nov-15 18:00N 50°30' W 000°06'816.3
2017-Nov-15 17:30N 50°32' E 000°06'816.6
2017-Nov-15 17:00N 50°35' E 000°19'816.8
2017-Nov-15 16:31N 50°37' E 000°32'917.6
2017-Nov-15 16:01N 50°41' E 000°44'918.3
2017-Nov-15 15:31N 50°46' E 000°56'918.3
2017-Nov-15 15:00N 50°51' E 001°09'1017.9
2017-Nov-15 14:27N 50°57' E 001°21'818.1
2017-Nov-15 14:01N 51°03' E 001°28'917.3
2017-Nov-15 13:31N 51°09' E 001°38'816.8
2017-Nov-15 13:00N 51°15' E 001°48'816.4
2017-Nov-15 12:31N 51°22' E 001°55'713.6
2017-Nov-15 12:01N 51°24' E 002°06'917.0
2017-Nov-15 11:30N 51°20' E 002°18'815.9
2017-Nov-15 10:59N 51°23' E 002°31'613.3
2017-Nov-15 10:30N 51°23' E 002°41'611.7
2017-Nov-15 10:00N 51°22' E 002°50'612.7
2017-Nov-15 09:31N 51°24' E 003°00'612.0
2017-Nov-15 09:01N 51°24' E 003°10'612.5
2017-Nov-15 08:31N 51°24' E 003°20'612.9
2017-Nov-15 08:01N 51°25' E 003°30'5 9.3
2017-Nov-15 07:31N 51°26' E 003°37'611.4
2017-Nov-15 07:00N 51°22' E 003°44'713.9
2017-Nov-15 06:30N 51°22' E 003°55'5 9.7
2017-Nov-15 06:00N 51°25' E 004°02'510.9
2017-Nov-15 05:30N 51°24' E 004°11'4 8.5
2017-Nov-15 05:00N 51°21' E 004°16'0 0.1
2017-Nov-15 04:31N 51°21' E 004°16'0 0.0
2017-Nov-15 04:01N 51°21' E 004°16'0 0.0
2017-Nov-15 03:30N 51°21' E 004°16'0 0.0
2017-Nov-15 02:57N 51°21' E 004°16'0 0.0
2017-Nov-15 02:28N 51°21' E 004°16'0 0.0
2017-Nov-15 01:59N 51°21' E 004°16'0 0.0
2017-Nov-15 01:30N 51°21' E 004°16'0 0.0
2017-Nov-15 01:01N 51°21' E 004°16'0 0.0
2017-Nov-15 00:31N 51°21' E 004°16'0 0.0
2017-Nov-15 00:01N 51°21' E 004°16'0 0.0
2017-Nov-14 23:31N 51°21' E 004°16'0 0.0
2017-Nov-14 23:00N 51°21' E 004°16'0 0.0
2017-Nov-14 22:30N 51°21' E 004°16'0 0.0
2017-Nov-14 22:01N 51°21' E 004°16'0 0.0
2017-Nov-14 21:30N 51°21' E 004°16'0 0.0
2017-Nov-14 21:00N 51°21' E 004°16'0 0.0
2017-Nov-14 20:29N 51°21' E 004°16'0 0.0
2017-Nov-14 19:59N 51°21' E 004°16'0 0.0
2017-Nov-14 19:31N 51°21' E 004°16'0 0.0
2017-Nov-14 19:00N 51°21' E 004°16'0 0.0
2017-Nov-14 18:31N 51°21' E 004°16'0 0.0
2017-Nov-14 18:00N 51°21' E 004°16'0 0.0
2017-Nov-14 17:30N 51°21' E 004°16'0 0.0
2017-Nov-14 16:58N 51°21' E 004°16'0 0.0
2017-Nov-14 16:31N 51°21' E 004°16'0 0.0
2017-Nov-14 16:00N 51°21' E 004°16'0 0.0
2017-Nov-14 15:31N 51°21' E 004°16'1 1.7
2017-Nov-14 15:00N 51°21' E 004°15'3 6.9
2017-Nov-14 14:30N 51°24' E 004°11'510.3
2017-Nov-14 14:00N 51°23' E 004°02'4 7.2
2017-Nov-14 13:30N 51°25' E 003°58'5 9.6
2017-Nov-14 13:00N 51°21' E 003°53'611.6
2017-Nov-14 12:30N 51°22' E 003°44'611.0
2017-Nov-14 12:00N 51°26' E 003°38'5 9.7
2017-Nov-14 11:30N 51°25' E 003°30'815.1
2017-Nov-14 11:01N 51°24' E 003°18'815.4
2017-Nov-14 10:31N 51°24' E 003°06'510.2
2017-Nov-14 10:00N 51°28' E 003°02'815.4
2017-Nov-14 09:30N 51°35' E 003°09'815.5
2017-Nov-14 09:00N 51°42' E 003°14'5 9.9
2017-Nov-14 08:30N 51°47' E 003°14'4 7.6
2017-Nov-14 08:00N 51°50' E 003°13'1 2.1
2017-Nov-14 07:28N 51°49' E 003°13'0 0.5
2017-Nov-14 06:47N 51°49' E 003°12'0 1.0
2017-Nov-14 06:29N 51°50' E 003°12'2 3.0
2017-Nov-14 05:59N 51°48' E 003°13'1 1.2
2017-Nov-14 05:29N 51°49' E 003°13'1 1.7
2017-Nov-14 05:00N 51°50' E 003°13'0 0.5
2017-Nov-14 04:30N 51°50' E 003°13'1 2.5
2017-Nov-14 03:59N 51°49' E 003°14'1 1.1
2017-Nov-14 03:30N 51°49' E 003°14'2 3.4
2017-Nov-14 02:59N 51°50' E 003°17'510.7
2017-Nov-14 02:29N 51°55' E 003°20'510.5
2017-Nov-14 02:00N 51°60' E 003°22'5 9.5
2017-Nov-14 01:30N 52°03' E 003°27'510.2
2017-Nov-14 01:00N 52°04' E 003°35'5 9.6
2017-Nov-14 00:30N 52°03' E 003°43'5 9.6
2017-Nov-14 00:00N 52°03' E 003°51'4 7.7
2017-Nov-13 23:30N 52°02' E 003°57'612.2
2017-Nov-13 23:00N 51°59' E 004°05'2 3.1
2017-Nov-13 22:30N 51°58' E 004°02'2 3.2
2017-Nov-13 22:00N 51°58' E 004°00'14 0.7
2017-Nov-13 01:59N 52°07' E 003°43'0 0.1
2017-Nov-13 01:23N 52°07' E 003°43'0 0.0
2017-Nov-13 00:56N 52°07' E 003°43'0 0.2
2017-Nov-13 00:29N 52°07' E 003°43'0 0.1
2017-Nov-12 23:59N 52°07' E 003°43'0 0.1
2017-Nov-12 23:29N 52°07' E 003°43'0 0.1
2017-Nov-12 22:59N 52°07' E 003°43'0 0.1
2017-Nov-12 22:29N 52°07' E 003°43'0 0.1
2017-Nov-12 22:00N 52°07' E 003°43'1 1.2
2017-Nov-12 21:29N 52°07' E 003°44'1 2.6
2017-Nov-12 21:00N 52°07' E 003°46'3 5.9
2017-Nov-12 20:30N 52°10' E 003°46'510.0
2017-Nov-12 20:00N 52°15' E 003°46'510.8
2017-Nov-12 19:30N 52°20' E 003°48'611.4
2017-Nov-12 19:00N 52°25' E 003°50'611.6
2017-Nov-12 18:30N 52°31' E 003°52'611.9
2017-Nov-12 18:00N 52°37' E 003°52'611.9
2017-Nov-12 17:30N 52°43' E 003°55'912.3
2017-Nov-12 16:47N 52°52' E 003°58'412.3
2017-Nov-12 16:25N 52°56' E 003°60'511.3
2017-Nov-12 15:57N 52°60' E 004°06'611.4
2017-Nov-12 15:25N 53°04' E 004°14'511.0
2017-Nov-12 14:59N 53°07' E 004°19'510.6
2017-Nov-12 14:30N 53°10' E 004°25'116 9.6
2017-Nov-12 02:28N 53°58' E 007°23'7 8.5
2017-Nov-12 01:39N 54°01' E 007°34'1 8.2
2017-Nov-12 01:30N 54°01' E 007°36'9 8.4
2017-Nov-12 00:24N 53°53' E 007°46'4 9.4
2017-Nov-12 00:00N 53°52' E 007°52'612.7
2017-Nov-11 23:30N 53°51' E 008°02'713.4
2017-Nov-11 23:00N 53°46' E 008°11'815.1
2017-Nov-11 22:30N 53°42' E 008°21'814.9
2017-Nov-11 22:00N 53°36' E 008°30'1 2.3
2017-Nov-11 21:30N 53°36' E 008°31'0 0.0
2017-Nov-11 21:00N 53°36' E 008°31'0 0.0
2017-Nov-11 20:30N 53°36' E 008°31'0 0.0
2017-Nov-11 20:00N 53°36' E 008°31'0 0.0
2017-Nov-11 19:30N 53°36' E 008°31'0 0.0
2017-Nov-11 19:00N 53°36' E 008°31'0 0.0
2017-Nov-11 18:30N 53°36' E 008°31'0 0.0
2017-Nov-11 18:00N 53°36' E 008°31'0 0.0
2017-Nov-11 17:30N 53°36' E 008°31'0 0.0
2017-Nov-11 17:00N 53°36' E 008°31'0 0.0
2017-Nov-11 16:24N 53°36' E 008°31'0 0.0
2017-Nov-11 16:00N 53°36' E 008°31'0 0.0
2017-Nov-11 15:30N 53°36' E 008°31'0 0.0
2017-Nov-11 15:00N 53°36' E 008°31'0 0.0
2017-Nov-11 14:30N 53°36' E 008°31'0 0.0
2017-Nov-11 14:00N 53°36' E 008°31'0 0.0
2017-Nov-11 13:30N 53°36' E 008°31'0 0.0
2017-Nov-11 12:57N 53°36' E 008°31'0 0.0
2017-Nov-11 12:30N 53°36' E 008°31'0 0.0
2017-Nov-11 11:57N 53°36' E 008°31'0 0.0
2017-Nov-11 11:30N 53°36' E 008°31'0 0.0
2017-Nov-11 10:57N 53°36' E 008°31'0 0.0
2017-Nov-11 10:30N 53°36' E 008°31'0 0.0
2017-Nov-11 10:00N 53°36' E 008°31'0 0.0
2017-Nov-11 09:30N 53°36' E 008°31'0 0.0
2017-Nov-11 09:00N 53°36' E 008°31'0 0.0
2017-Nov-11 08:30N 53°36' E 008°31'0 0.0
2017-Nov-11 08:00N 53°36' E 008°31'0 0.0
2017-Nov-11 07:30N 53°36' E 008°31'0 0.0
2017-Nov-11 07:00N 53°36' E 008°31'0 0.0
2017-Nov-11 06:30N 53°36' E 008°31'0 0.0
2017-Nov-11 06:00N 53°36' E 008°31'0 0.0
2017-Nov-11 05:30N 53°36' E 008°31'0 0.0
2017-Nov-11 05:00N 53°36' E 008°31'  
Track history (hours):
 
Tides and Currents Weather Stations Pressure Air Temp Water Temp Dewpoint Dewpoint Depression Visibility Wind Speed Wind Dir Waves Ship Positions

Maersk Nimes

Last reported at 2017-Nov-21 05:00 UTC. Time now 2017-Nov-21 06:15 UTC.
Position N 30°24' W 038°12'.

Length 210 m; draft 10.6 m.

Type: Cargo ship. MMSI: 477559200.

Wind from 030 at 15 knots

Barometer 1017.0 mb
Air temperature 22.0 ° C
Visibility: greater than 10.8 NM
Dewpoint 18.9 ° C
Water temperature 23.0 ° C

Date/timePositionNaut miles runAvg speedWind from/ knotsBaromVisibWave heightAir tempDewpointWater temp
2017-Nov-21 05:00N 30°24' W 038°12'4815.9 030 / 151017.010.8 22.018.923.0
2017-Nov-21 02:00N 30°48' W 037°24'11616.5 010 / 161017.310.8 20.016.724.0
2017-Nov-20 19:00N 31°30' W 035°18'4522.3 360 / 211013.310.8 21.014.217.0
2017-Nov-20 17:00N 31°48' W 034°30'4514.8 010 / 161012.010.8 25.022.024.0
2017-Nov-20 14:00N 32°06' W 033°42'15617.4 360 / 171011.910.8 23.019.925.0
2017-Nov-20 05:00N 33°00' W 030°48'13915.4 170 / 211011.010.8 24.021.023.0
2017-Nov-19 20:00N 33°48' W 028°12'2120.8 180 / 131014.010.8 21.017.818.0
2017-Nov-19 19:00N 33°54' W 027°48'9014.9 180 / 151014.010.8 22.018.918.0
2017-Nov-19 13:00N 34°24' W 026°06'3615.9 130 / 151017.310.8 26.023.123.0
2017-Nov-19 10:44N 34°35' W 025°25'816.7
2017-Nov-19 10:16N 34°37' W 025°16'8516.1
2017-Nov-19 05:00N 35°00' W 023°36'24516.3 130 / 91007.710.8 20.014.916.0
2017-Nov-18 14:00N 37°24' W 019°30'3617.8 140 / 161020.010.8 20.014.920.0
2017-Nov-18 12:00N 37°54' W 019°06'13717.1 140 / 151021.910.8 26.013.520.0
2017-Nov-18 04:00N 39°42' W 017°18'16117.1 090 / 151021.010.8 18.014.617.0
2017-Nov-17 18:34N 41°51' W 015°10'117.2
2017-Nov-17 18:31N 41°51' W 015°09'2214.3
2017-Nov-17 17:00N 42°06' W 014°48'7518.6 090 / 131022.810.8 19.013.816.0
2017-Nov-17 13:00N 43°06' W 013°48'1817.8 050 / 151024.010.8 18.012.716.0
2017-Nov-17 12:00N 43°18' W 013°30'14317.8 050 / 151024.810.8 17.0 9.415.0
2017-Nov-17 04:00N 45°12' W 011°30'26617.2 330 / 121026.010.8 15.0 9.214.0
2017-Nov-16 12:29N 48°43' W 007°33'1416.3
2017-Nov-16 11:37N 48°55' W 007°20'3116.5
2017-Nov-16 09:44N 49°15' W 006°44'2217.1
2017-Nov-16 08:26N 49°24' W 006°12'717.3
2017-Nov-16 08:00N 49°25' W 006°01'1217.2
2017-Nov-16 07:19N 49°28' W 005°43'517.0
2017-Nov-16 07:00N 49°29' W 005°36'817.0
2017-Nov-16 06:30N 49°31' W 005°23'916.8
2017-Nov-16 05:57N 49°33' W 005°09'816.7
2017-Nov-16 05:30N 49°35' W 004°58'816.2
2017-Nov-16 05:00N 49°37' W 004°46'816.0
2017-Nov-16 04:30N 49°40' W 004°34'815.9
2017-Nov-16 04:01N 49°42' W 004°22'915.5
2017-Nov-16 03:25N 49°45' W 004°09'715.4
2017-Nov-16 02:57N 49°47' W 003°58'715.7
2017-Nov-16 02:29N 49°49' W 003°48'816.1
2017-Nov-16 02:01N 49°52' W 003°36'816.7
2017-Nov-16 01:31N 49°54' W 003°24'917.3
2017-Nov-16 01:00N 49°57' W 003°11'918.0
2017-Nov-16 00:30N 49°60' W 002°58'918.5
2017-Nov-16 00:00N 50°02' W 002°44'1019.1
2017-Nov-15 23:31N 50°05' W 002°30'1219.8
2017-Nov-15 22:53N 50°07' W 002°11'719.5
2017-Nov-15 22:30N 50°09' W 001°60'919.0
2017-Nov-15 22:00N 50°12' W 001°45'918.3
2017-Nov-15 21:30N 50°14' W 001°32'918.0
2017-Nov-15 21:01N 50°17' W 001°18'917.2
2017-Nov-15 20:30N 50°19' W 001°05'1116.1
2017-Nov-15 19:49N 50°23' W 000°49'2025.1
2017-Nov-15 19:01N 50°39' W 000°31'1233.1
2017-Nov-15 18:40N 50°28' W 000°23'315.6
2017-Nov-15 18:30N 50°29' W 000°19'816.0
2017-Nov-15 18:00N 50°30' W 000°06'816.3
2017-Nov-15 17:30N 50°32' E 000°06'816.6
2017-Nov-15 17:00N 50°35' E 000°19'816.8
2017-Nov-15 16:31N 50°37' E 000°32'917.6
2017-Nov-15 16:01N 50°41' E 000°44'918.3
2017-Nov-15 15:31N 50°46' E 000°56'918.3
2017-Nov-15 15:00N 50°51' E 001°09'1017.9
2017-Nov-15 14:27N 50°57' E 001°21'818.1
2017-Nov-15 14:01N 51°03' E 001°28'917.3
2017-Nov-15 13:31N 51°09' E 001°38'816.8
2017-Nov-15 13:00N 51°15' E 001°48'816.4
2017-Nov-15 12:31N 51°22' E 001°55'713.6
2017-Nov-15 12:01N 51°24' E 002°06'917.0
2017-Nov-15 11:30N 51°20' E 002°18'815.9
2017-Nov-15 10:59N 51°23' E 002°31'613.3
2017-Nov-15 10:30N 51°23' E 002°41'611.7
2017-Nov-15 10:00N 51°22' E 002°50'612.7
2017-Nov-15 09:31N 51°24' E 003°00'612.0
2017-Nov-15 09:01N 51°24' E 003°10'612.5
2017-Nov-15 08:31N 51°24' E 003°20'612.9
2017-Nov-15 08:01N 51°25' E 003°30'5 9.3
2017-Nov-15 07:31N 51°26' E 003°37'611.4
2017-Nov-15 07:00N 51°22' E 003°44'713.9
2017-Nov-15 06:30N 51°22' E 003°55'5 9.7
2017-Nov-15 06:00N 51°25' E 004°02'510.9
2017-Nov-15 05:30N 51°24' E 004°11'4 8.5
2017-Nov-15 05:00N 51°21' E 004°16'0 0.1
2017-Nov-15 04:31N 51°21' E 004°16'0 0.0
2017-Nov-15 04:01N 51°21' E 004°16'0 0.0
2017-Nov-15 03:30N 51°21' E 004°16'0 0.0
2017-Nov-15 02:57N 51°21' E 004°16'0 0.0
2017-Nov-15 02:28N 51°21' E 004°16'0 0.0
2017-Nov-15 01:59N 51°21' E 004°16'0 0.0
2017-Nov-15 01:30N 51°21' E 004°16'0 0.0
2017-Nov-15 01:01N 51°21' E 004°16'0 0.0
2017-Nov-15 00:31N 51°21' E 004°16'0 0.0
2017-Nov-15 00:01N 51°21' E 004°16'0 0.0
2017-Nov-14 23:31N 51°21' E 004°16'0 0.0
2017-Nov-14 23:00N 51°21' E 004°16'0 0.0
2017-Nov-14 22:30N 51°21' E 004°16'0 0.0
2017-Nov-14 22:01N 51°21' E 004°16'0 0.0
2017-Nov-14 21:30N 51°21' E 004°16'0 0.0
2017-Nov-14 21:00N 51°21' E 004°16'0 0.0
2017-Nov-14 20:29N 51°21' E 004°16'0 0.0
2017-Nov-14 19:59N 51°21' E 004°16'0 0.0
2017-Nov-14 19:31N 51°21' E 004°16'0 0.0
2017-Nov-14 19:00N 51°21' E 004°16'0 0.0
2017-Nov-14 18:31N 51°21' E 004°16'0 0.0
2017-Nov-14 18:00N 51°21' E 004°16'0 0.0
2017-Nov-14 17:30N 51°21' E 004°16'0 0.0
2017-Nov-14 16:58N 51°21' E 004°16'0 0.0
2017-Nov-14 16:31N 51°21' E 004°16'0 0.0
2017-Nov-14 16:00N 51°21' E 004°16'0 0.0
2017-Nov-14 15:31N 51°21' E 004°16'1 1.7
2017-Nov-14 15:00N 51°21' E 004°15'3 6.9
2017-Nov-14 14:30N 51°24' E 004°11'510.3
2017-Nov-14 14:00N 51°23' E 004°02'4 7.2
2017-Nov-14 13:30N 51°25' E 003°58'5 9.6
2017-Nov-14 13:00N 51°21' E 003°53'611.6
2017-Nov-14 12:30N 51°22' E 003°44'611.0
2017-Nov-14 12:00N 51°26' E 003°38'5 9.7
2017-Nov-14 11:30N 51°25' E 003°30'815.1
2017-Nov-14 11:01N 51°24' E 003°18'815.4
2017-Nov-14 10:31N 51°24' E 003°06'510.2
2017-Nov-14 10:00N 51°28' E 003°02'815.4
2017-Nov-14 09:30N 51°35' E 003°09'815.5
2017-Nov-14 09:00N 51°42' E 003°14'5 9.9
2017-Nov-14 08:30N 51°47' E 003°14'4 7.6
2017-Nov-14 08:00N 51°50' E 003°13'1 2.1
2017-Nov-14 07:28N 51°49' E 003°13'0 0.5
2017-Nov-14 06:47N 51°49' E 003°12'0 1.0
2017-Nov-14 06:29N 51°50' E 003°12'2 3.0
2017-Nov-14 05:59N 51°48' E 003°13'1 1.2
2017-Nov-14 05:29N 51°49' E 003°13'1 1.7
2017-Nov-14 05:00N 51°50' E 003°13'0 0.5
2017-Nov-14 04:30N 51°50' E 003°13'1 2.5
2017-Nov-14 03:59N 51°49' E 003°14'1 1.1
2017-Nov-14 03:30N 51°49' E 003°14'2 3.4
2017-Nov-14 02:59N 51°50' E 003°17'510.7
2017-Nov-14 02:29N 51°55' E 003°20'510.5
2017-Nov-14 02:00N 51°60' E 003°22'5 9.5
2017-Nov-14 01:30N 52°03' E 003°27'510.2
2017-Nov-14 01:00N 52°04' E 003°35'5 9.6
2017-Nov-14 00:30N 52°03' E 003°43'5 9.6
2017-Nov-14 00:00N 52°03' E 003°51'4 7.7
2017-Nov-13 23:30N 52°02' E 003°57'612.2
2017-Nov-13 23:00N 51°59' E 004°05'2 3.1
2017-Nov-13 22:30N 51°58' E 004°02'2 3.2
2017-Nov-13 22:00N 51°58' E 004°00'14 0.7
2017-Nov-13 01:59N 52°07' E 003°43'0 0.1
2017-Nov-13 01:23N 52°07' E 003°43'0 0.0
2017-Nov-13 00:56N 52°07' E 003°43'0 0.2
2017-Nov-13 00:29N 52°07' E 003°43'0 0.1
2017-Nov-12 23:59N 52°07' E 003°43'0 0.1
2017-Nov-12 23:29N 52°07' E 003°43'0 0.1
2017-Nov-12 22:59N 52°07' E 003°43'0 0.1
2017-Nov-12 22:29N 52°07' E 003°43'0 0.1
2017-Nov-12 22:00N 52°07' E 003°43'1 1.2
2017-Nov-12 21:29N 52°07' E 003°44'1 2.6
2017-Nov-12 21:00N 52°07' E 003°46'3 5.9
2017-Nov-12 20:30N 52°10' E 003°46'510.0
2017-Nov-12 20:00N 52°15' E 003°46'510.8
2017-Nov-12 19:30N 52°20' E 003°48'611.4
2017-Nov-12 19:00N 52°25' E 003°50'611.6
2017-Nov-12 18:30N 52°31' E 003°52'611.9
2017-Nov-12 18:00N 52°37' E 003°52'611.9
2017-Nov-12 17:30N 52°43' E 003°55'912.3
2017-Nov-12 16:47N 52°52' E 003°58'412.3
2017-Nov-12 16:25N 52°56' E 003°60'511.3
2017-Nov-12 15:57N 52°60' E 004°06'611.4
2017-Nov-12 15:25N 53°04' E 004°14'511.0
2017-Nov-12 14:59N 53°07' E 004°19'510.6
2017-Nov-12 14:30N 53°10' E 004°25'116 9.6
2017-Nov-12 02:28N 53°58' E 007°23'7 8.5
2017-Nov-12 01:39N 54°01' E 007°34'1 8.2
2017-Nov-12 01:30N 54°01' E 007°36'9 8.4
2017-Nov-12 00:24N 53°53' E 007°46'4 9.4
2017-Nov-12 00:00N 53°52' E 007°52'612.7
2017-Nov-11 23:30N 53°51' E 008°02'713.4
2017-Nov-11 23:00N 53°46' E 008°11'815.1
2017-Nov-11 22:30N 53°42' E 008°21'814.9
2017-Nov-11 22:00N 53°36' E 008°30'1 2.3
2017-Nov-11 21:30N 53°36' E 008°31'0 0.0
2017-Nov-11 21:00N 53°36' E 008°31'0 0.0
2017-Nov-11 20:30N 53°36' E 008°31'0 0.0
2017-Nov-11 20:00N 53°36' E 008°31'0 0.0
2017-Nov-11 19:30N 53°36' E 008°31'0 0.0
2017-Nov-11 19:00N 53°36' E 008°31'0 0.0
2017-Nov-11 18:30N 53°36' E 008°31'0 0.0
2017-Nov-11 18:00N 53°36' E 008°31'0 0.0
2017-Nov-11 17:30N 53°36' E 008°31'0 0.0
2017-Nov-11 17:00N 53°36' E 008°31'0 0.0
2017-Nov-11 16:24N 53°36' E 008°31'0 0.0
2017-Nov-11 16:00N 53°36' E 008°31'0 0.0
2017-Nov-11 15:30N 53°36' E 008°31'0 0.0
2017-Nov-11 15:00N 53°36' E 008°31'0 0.0
2017-Nov-11 14:30N 53°36' E 008°31'0 0.0
2017-Nov-11 14:00N 53°36' E 008°31'0 0.0
2017-Nov-11 13:30N 53°36' E 008°31'0 0.0
2017-Nov-11 12:57N 53°36' E 008°31'0 0.0
2017-Nov-11 12:30N 53°36' E 008°31'0 0.0
2017-Nov-11 11:57N 53°36' E 008°31'0 0.0
2017-Nov-11 11:30N 53°36' E 008°31'0 0.0
2017-Nov-11 10:57N 53°36' E 008°31'0 0.0
2017-Nov-11 10:30N 53°36' E 008°31'0 0.0
2017-Nov-11 10:00N 53°36' E 008°31'0 0.0
2017-Nov-11 09:30N 53°36' E 008°31'0 0.0
2017-Nov-11 09:00N 53°36' E 008°31'0 0.0
2017-Nov-11 08:30N 53°36' E 008°31'0 0.0
2017-Nov-11 08:00N 53°36' E 008°31'0 0.0
2017-Nov-11 07:30N 53°36' E 008°31'0 0.0
2017-Nov-11 07:00N 53°36' E 008°31'0 0.0
2017-Nov-11 06:30N 53°36' E 008°31'0 0.0
2017-Nov-11 06:00N 53°36' E 008°31'0 0.0
2017-Nov-11 05:30N 53°36' E 008°31'0 0.0
2017-Nov-11 05:00N 53°36' E 008°31'  

Dump ship's entire track history